Time;durP1;ratioP1;P1;durP2;ratioP2;P2;SDS_P1;SDS_P2;PMS_P1;PMS_P2;Temp;Humidity;BMP_temperature;BMP_pressure;BME280_temperature;BME280_humidity;BME280_pressure;Samples;Min_cycle;Max_cycle;Signal;HPM_P1;HPM_P2
2023/06/30 00:02:06;;;;;;;2.45;2.25;;;21.80;64.10;;;;;;5013831;28;20026;-74
2023/06/30 00:04:32;;;;;;;2.13;1.92;;;21.90;63.50;;;;;;5013736;28;20030;-73
2023/06/30 00:06:59;;;;;;;4.35;2.53;;;21.90;63.50;;;;;;5013866;28;20032;-74
2023/06/30 00:09:25;;;;;;;2.47;2.28;;;22.00;63.50;;;;;;5013887;28;20030;-74
2023/06/30 00:11:53;;;;;;;2.60;2.40;;;22.10;63.30;;;;;;5013921;28;20057;-74
2023/06/30 00:14:20;;;;;;;2.42;2.22;;;22.10;63.10;;;;;;5013579;28;20034;-74
2023/06/30 00:16:46;;;;;;;2.35;2.15;;;22.10;63.10;;;;;;5013897;28;20483;-74
2023/06/30 00:19:11;;;;;;;3.03;2.40;;;22.20;63.10;;;;;;5012782;28;20034;-74
2023/06/30 00:21:41;;;;;;;2.15;1.95;;;22.20;63.00;;;;;;5012455;28;20084;-74
2023/06/30 00:24:08;;;;;;;2.50;2.28;;;22.20;63.00;;;;;;5012326;28;20117;-74
2023/06/30 00:26:34;;;;;;;2.28;2.08;;;22.30;62.80;;;;;;5013451;28;20030;-74
2023/06/30 00:29:01;;;;;;;2.60;2.40;;;22.30;62.80;;;;;;5013700;28;20037;-74
2023/06/30 00:31:27;;;;;;;2.30;2.10;;;22.30;62.70;;;;;;5012414;28;20037;-74
2023/06/30 00:33:53;;;;;;;2.65;2.00;;;22.40;62.70;;;;;;5013876;28;20041;-74
2023/06/30 00:36:18;;;;;;;2.92;2.63;;;22.40;62.60;;;;;;5013871;28;20456;-73
2023/06/30 00:38:44;;;;;;;2.70;2.50;;;22.40;62.50;;;;;;5013360;28;20113;-74
2023/06/30 00:41:10;;;;;;;2.70;2.50;;;22.40;62.50;;;;;;5013249;28;20030;-73
2023/06/30 00:43:38;;;;;;;2.83;2.50;;;22.40;62.40;;;;;;5013511;28;20053;-73
2023/06/30 00:46:04;;;;;;;2.40;2.03;;;22.40;62.40;;;;;;5013523;28;20037;-73
2023/06/30 00:48:30;;;;;;;2.50;2.30;;;22.40;62.70;;;;;;5013831;28;20034;-73
2023/06/30 00:50:56;;;;;;;3.55;2.35;;;22.50;62.40;;;;;;5012275;28;20034;-74
2023/06/30 00:53:24;;;;;;;3.40;2.67;;;22.50;62.30;;;;;;5013654;28;20026;-74
2023/06/30 00:55:50;;;;;;;2.30;2.10;;;22.50;62.40;;;;;;5016127;28;20030;-74
2023/06/30 00:58:16;;;;;;;3.00;2.33;;;22.50;62.30;;;;;;5016123;28;20384;-74
2023/06/30 01:00:42;;;;;;;2.90;2.30;;;22.50;62.30;;;;;;5017273;28;20025;-74
2023/06/30 01:03:25;;;;;;;2.50;2.30;;;22.40;62.20;;;;;;5016986;28;20025;-74
2023/06/30 01:06:09;;;;;;;2.70;2.50;;;22.40;62.30;;;;;;5017031;28;20468;-73
2023/06/30 01:08:45;;;;;;;2.78;2.45;;;22.30;62.50;;;;;;5015993;28;20523;-73
2023/06/30 01:11:11;;;;;;;3.55;2.70;;;22.20;62.30;;;;;;5016883;28;20038;-73
2023/06/30 01:13:38;;;;;;;2.63;2.42;;;22.00;62.40;;;;;;5016881;28;20026;-73
2023/06/30 01:16:05;;;;;;;2.92;2.60;;;22.00;62.60;;;;;;5016726;28;20068;-74
2023/06/30 01:18:34;;;;;;;2.95;2.65;;;21.90;62.80;;;;;;5015217;28;20026;-73
2023/06/30 01:21:00;;;;;;;3.58;2.78;;;21.80;62.90;;;;;;5015152;28;20037;-73
2023/06/30 01:23:37;;;;;;;2.88;2.50;;;21.80;63.10;;;;;;5016713;28;20022;-73
2023/06/30 01:26:06;;;;;;;2.85;2.40;;;21.80;63.20;;;;;;5015243;28;20044;-74
2023/06/30 01:28:35;;;;;;;2.60;2.40;;;21.80;63.10;;;;;;5016570;28;20457;-73
2023/06/30 01:31:05;;;;;;;3.55;2.80;;;21.80;63.00;;;;;;5016259;28;20029;-74
2023/06/30 01:33:33;;;;;;;2.63;2.40;;;21.70;63.00;;;;;;5015253;28;20029;-74
2023/06/30 01:35:59;;;;;;;2.35;2.15;;;21.70;63.10;;;;;;5015043;28;20080;-74
2023/06/30 01:38:24;;;;;;;4.03;2.20;;;21.70;63.20;;;;;;5016368;28;20034;-74
2023/06/30 01:40:50;;;;;;;2.50;2.30;;;21.70;63.30;;;;;;5016215;28;20033;-74
2023/06/30 01:43:16;;;;;;;2.50;2.30;;;21.70;63.20;;;;;;5016493;28;20037;-72
2023/06/30 01:45:41;;;;;;;3.28;2.20;;;21.80;63.20;;;;;;5014994;28;20439;-73
2023/06/30 01:48:07;;;;;;;2.55;2.30;;;21.80;63.00;;;;;;5015939;28;20101;-73
2023/06/30 01:50:35;;;;;;;2.85;2.42;;;21.90;62.90;;;;;;5016039;28;20057;-73
2023/06/30 01:53:00;;;;;;;2.85;2.55;;;21.90;62.80;;;;;;5016010;28;20150;-73
2023/06/30 01:55:26;;;;;;;2.35;2.15;;;21.90;62.80;;;;;;5015999;28;20105;-73
2023/06/30 01:57:52;;;;;;;3.30;2.25;;;21.90;62.70;;;;;;5015941;28;20022;-73
2023/06/30 02:00:18;;;;;;;2.25;2.05;;;21.90;62.60;;;;;;5016212;28;20156;-73
2023/06/30 02:02:44;;;;;;;2.65;2.45;;;21.80;62.60;;;;;;5015920;28;20469;-73
2023/06/30 02:05:11;;;;;;;3.92;2.38;;;21.80;62.60;;;;;;5015500;28;20030;-73
2023/06/30 02:07:36;;;;;;;3.17;2.50;;;21.80;62.70;;;;;;5014696;28;20029;-73
2023/06/30 02:10:02;;;;;;;2.50;2.30;;;21.80;62.80;;;;;;5015733;28;20041;-73
2023/06/30 02:12:28;;;;;;;2.40;2.20;;;21.80;62.80;;;;;;5015841;28;20540;-73
2023/06/30 02:14:53;;;;;;;2.53;2.33;;;21.80;62.70;;;;;;5015348;28;20488;-73
2023/06/30 02:17:32;;;;;;;2.60;2.40;;;21.90;62.70;;;;;;5015377;28;20021;-73
2023/06/30 02:19:59;;;;;;;2.53;2.33;;;21.80;62.70;;;;;;5015546;28;20034;-73
2023/06/30 02:22:25;;;;;;;2.10;2.00;;;21.80;62.60;;;;;;5015727;28;20080;-74
2023/06/30 02:24:53;;;;;;;4.63;2.40;;;21.80;62.60;;;;;;5015327;28;20061;-73
2023/06/30 02:27:19;;;;;;;2.92;2.38;;;21.80;62.50;;;;;;5015191;28;20022;-74
2023/06/30 02:29:45;;;;;;;2.30;2.10;;;21.80;62.60;;;;;;5015510;28;20125;-74
2023/06/30 02:32:10;;;;;;;2.75;2.30;;;21.80;62.60;;;;;;5015142;28;20068;-73
2023/06/30 02:34:36;;;;;;;3.10;2.30;;;21.80;62.50;;;;;;5015229;28;20380;-73
2023/06/30 02:37:02;;;;;;;3.50;2.30;;;21.90;62.50;;;;;;5015106;28;20073;-73
2023/06/30 02:39:27;;;;;;;2.40;2.20;;;21.90;62.30;;;;;;5014993;28;20058;-74
2023/06/30 02:41:53;;;;;;;2.55;2.20;;;21.90;62.30;;;;;;5015015;28;20044;-73
2023/06/30 02:44:19;;;;;;;2.22;2.03;;;22.00;62.20;;;;;;5015121;28;20148;-73
2023/06/30 02:46:45;;;;;;;2.80;2.42;;;22.00;62.20;;;;;;5014926;28;20436;-75
2023/06/30 02:49:11;;;;;;;2.30;2.10;;;22.00;62.10;;;;;;5014880;28;20461;-74
2023/06/30 02:51:36;;;;;;;3.72;2.50;;;22.00;62.10;;;;;;5014898;28;20037;-74
2023/06/30 02:54:02;;;;;;;3.25;2.45;;;22.00;62.00;;;;;;5014855;28;20111;-74
2023/06/30 02:56:28;;;;;;;2.20;2.00;;;22.00;62.00;;;;;;5014637;28;20603;-74
2023/06/30 02:58:53;;;;;;;2.45;2.22;;;22.10;62.60;;;;;;5014639;28;20029;-74
2023/06/30 03:01:21;;;;;;;3.35;2.40;;;22.00;61.90;;;;;;5015098;28;20036;-74
2023/06/30 03:03:47;;;;;;;2.60;2.40;;;22.10;61.90;;;;;;5014754;28;20029;-74
2023/06/30 03:06:13;;;;;;;2.47;2.20;;;22.00;61.80;;;;;;5014600;28;20094;-74
2023/06/30 03:08:39;;;;;;;2.22;2.03;;;22.00;61.80;;;;;;5013693;28;20030;-74
2023/06/30 03:11:04;;;;;;;3.60;2.15;;;22.00;61.80;;;;;;5014636;28;20026;-74
2023/06/30 03:13:30;;;;;;;2.92;2.40;;;22.10;61.80;;;;;;5014615;28;20527;-74
2023/06/30 03:15:56;;;;;;;2.20;2.00;;;22.10;61.70;;;;;;5014566;28;20456;-73
2023/06/30 03:18:21;;;;;;;2.60;2.40;;;22.10;61.70;;;;;;5013798;28;20479;-75
2023/06/30 03:20:48;;;;;;;2.38;2.10;;;22.10;61.70;;;;;;5014590;28;20026;-75
2023/06/30 03:23:14;;;;;;;2.63;2.42;;;22.10;61.60;;;;;;5013280;28;20468;-74
2023/06/30 03:25:40;;;;;;;2.17;2.00;;;22.10;61.60;;;;;;5014214;28;20522;-73
2023/06/30 03:28:05;;;;;;;2.40;2.20;;;22.10;61.60;;;;;;5014227;28;20026;-73
2023/06/30 03:30:31;;;;;;;3.35;2.30;;;22.10;61.60;;;;;;5014414;28;20388;-73
2023/06/30 03:32:56;;;;;;;2.50;2.10;;;22.10;61.60;;;;;;5014578;28;20037;-73
2023/06/30 03:35:22;;;;;;;2.38;2.17;;;22.20;61.60;;;;;;5014193;28;20053;-74
2023/06/30 03:37:48;;;;;;;2.65;2.45;;;22.20;61.50;;;;;;5014222;28;20033;-74
2023/06/30 03:40:13;;;;;;;2.58;2.20;;;22.20;61.40;;;;;;5012928;28;20029;-74
2023/06/30 03:42:39;;;;;;;2.60;2.40;;;22.20;61.40;;;;;;5014545;28;20025;-74
2023/06/30 03:45:06;;;;;;;3.70;2.40;;;22.30;61.50;;;;;;5014137;28;20476;-73
2023/06/30 03:47:31;;;;;;;2.40;2.20;;;22.30;61.40;;;;;;5014098;28;20129;-74
2023/06/30 03:49:57;;;;;;;2.40;2.20;;;22.30;61.30;;;;;;5012603;28;20511;-74
2023/06/30 03:52:22;;;;;;;2.42;2.22;;;22.40;61.20;;;;;;5014116;28;20022;-73
2023/06/30 03:54:48;;;;;;;2.97;2.30;;;22.40;61.10;;;;;;5013992;28;20034;-74
2023/06/30 03:57:14;;;;;;;3.20;2.47;;;22.40;61.00;;;;;;5012429;28;20072;-74
2023/06/30 03:59:39;;;;;;;2.50;2.30;;;22.50;61.00;;;;;;5014201;28;20034;-74
2023/06/30 04:02:05;;;;;;;2.40;2.20;;;22.50;60.90;;;;;;5013915;28;20026;-73
2023/06/30 04:04:31;;;;;;;3.28;2.55;;;22.50;60.80;;;;;;5012573;28;20025;-74
2023/06/30 04:06:56;;;;;;;3.22;2.50;;;22.50;60.80;;;;;;5013435;28;20030;-74
2023/06/30 04:09:22;;;;;;;2.30;2.10;;;22.60;60.80;;;;;;5013736;28;20079;-74
2023/06/30 04:11:50;;;;;;;2.50;2.30;;;22.60;60.80;;;;;;5012440;28;20416;-74
2023/06/30 04:14:16;;;;;;;2.30;2.10;;;22.60;60.70;;;;;;5013594;28;20511;-74
2023/06/30 04:16:42;;;;;;;3.90;2.38;;;22.60;60.70;;;;;;5014019;28;20037;-74
2023/06/30 04:19:08;;;;;;;2.67;2.47;;;22.70;60.70;;;;;;5013940;28;20022;-74
2023/06/30 04:21:34;;;;;;;2.67;2.40;;;22.70;60.60;;;;;;5012556;28;20388;-74
2023/06/30 04:23:59;;;;;;;3.38;2.30;;;22.70;60.60;;;;;;5013500;28;20034;-73
2023/06/30 04:26:25;;;;;;;2.95;2.65;;;22.70;60.50;;;;;;5013724;28;20126;-74
2023/06/30 04:28:51;;;;;;;2.60;2.40;;;22.60;60.60;;;;;;5015066;28;20026;-74
2023/06/30 04:31:17;;;;;;;3.47;2.30;;;22.60;60.60;;;;;;5017512;28;20038;-74
2023/06/30 04:33:43;;;;;;;3.47;2.50;;;22.60;60.70;;;;;;5017271;28;20034;-75
2023/06/30 04:36:08;;;;;;;4.07;2.60;;;22.60;60.70;;;;;;5017291;28;20034;-74
2023/06/30 04:38:34;;;;;;;3.10;2.72;;;22.60;60.60;;;;;;5017177;28;20101;-74
2023/06/30 04:41:00;;;;;;;3.30;3.00;;;22.70;60.60;;;;;;5017021;28;20057;-74
2023/06/30 04:43:26;;;;;;;3.00;2.70;;;22.60;60.50;;;;;;5017091;28;20026;-74
2023/06/30 04:45:51;;;;;;;3.53;2.63;;;22.60;60.50;;;;;;5016064;28;20094;-75
2023/06/30 04:48:17;;;;;;;3.53;2.63;;;22.60;60.60;;;;;;5017375;28;20101;-75
2023/06/30 04:50:43;;;;;;;3.72;3.00;;;22.60;60.60;;;;;;5017287;28;20045;-75
2023/06/30 04:53:08;;;;;;;3.25;2.90;;;22.60;60.60;;;;;;5016988;28;20472;-74
2023/06/30 04:55:34;;;;;;;3.08;2.78;;;22.50;60.60;;;;;;5017351;28;20405;-74
2023/06/30 04:58:00;;;;;;;4.07;2.47;;;22.50;60.70;;;;;;5017097;28;20384;-74
2023/06/30 05:00:26;;;;;;;3.28;2.90;;;22.50;60.80;;;;;;5016805;28;20030;-74
2023/06/30 05:02:52;;;;;;;4.88;2.70;;;22.50;60.80;;;;;;5015861;28;20022;-74
2023/06/30 05:05:18;;;;;;;4.15;2.72;;;22.50;60.80;;;;;;5016665;28;20029;-74
2023/06/30 05:07:45;;;;;;;3.33;3.00;;;22.50;60.80;;;;;;5016347;28;20468;-75
2023/06/30 05:10:11;;;;;;;3.58;3.05;;;22.50;60.90;;;;;;5016675;28;20117;-75
2023/06/30 05:12:37;;;;;;;3.10;2.80;;;22.40;60.90;;;;;;5016802;28;20117;-74
2023/06/30 05:15:03;;;;;;;2.80;2.58;;;22.50;61.00;;;;;;5015378;28;20105;-74
2023/06/30 05:17:29;;;;;;;3.75;3.00;;;22.40;60.90;;;;;;5016369;28;20030;-75
2023/06/30 05:19:55;;;;;;;4.18;2.72;;;22.40;61.00;;;;;;5016444;28;20125;-74
2023/06/30 05:22:20;;;;;;;2.92;2.65;;;22.40;61.00;;;;;;5016271;28;20106;-74
2023/06/30 05:24:47;;;;;;;3.45;2.80;;;22.50;61.10;;;;;;5016613;28;20044;-74
2023/06/30 05:27:14;;;;;;;3.80;3.28;;;22.50;61.20;;;;;;5016696;28;20085;-74
2023/06/30 05:29:39;;;;;;;3.42;3.00;;;22.50;61.20;;;;;;5016823;28;20117;-74
2023/06/30 05:32:06;;;;;;;4.05;3.00;;;22.40;61.20;;;;;;5016358;28;20100;-74
2023/06/30 05:34:32;;;;;;;3.05;2.78;;;22.40;61.30;;;;;;5016208;28;20032;-74
2023/06/30 05:36:58;;;;;;;4.47;2.88;;;22.40;61.20;;;;;;5015969;28;20025;-74
2023/06/30 05:39:23;;;;;;;2.92;2.70;;;22.40;61.30;;;;;;5016217;28;20092;-74
2023/06/30 05:41:49;;;;;;;3.00;2.70;;;22.40;61.30;;;;;;5015515;28;20374;-74
2023/06/30 05:44:14;;;;;;;4.15;2.85;;;22.40;61.40;;;;;;5016093;28;20045;-74
2023/06/30 05:46:40;;;;;;;3.20;2.90;;;22.50;61.50;;;;;;5015990;28;20464;-74
2023/06/30 05:49:06;;;;;;;4.28;3.40;;;22.50;61.60;;;;;;5014752;28;20113;-75
2023/06/30 05:51:33;;;;;;;3.35;2.92;;;22.40;61.50;;;;;;5014513;28;20165;-74
2023/06/30 05:53:59;;;;;;;3.55;2.80;;;22.40;61.50;;;;;;5015003;28;20040;-73
2023/06/30 05:56:25;;;;;;;4.30;2.80;;;22.50;61.50;;;;;;5016037;28;20026;-75
2023/06/30 05:58:51;;;;;;;3.22;2.90;;;22.50;61.50;;;;;;5015635;28;20021;-73
2023/06/30 06:01:17;;;;;;;2.95;2.65;;;22.60;61.50;;;;;;5015886;28;20044;-74
2023/06/30 06:03:42;;;;;;;4.00;3.00;;;22.60;61.50;;;;;;5015734;28;20025;-73
2023/06/30 06:06:08;;;;;;;3.17;2.60;;;22.70;61.40;;;;;;5015715;28;20037;-73
2023/06/30 06:08:34;;;;;;;3.22;2.90;;;22.70;61.20;;;;;;5015678;28;20022;-73
2023/06/30 06:11:00;;;;;;;3.38;3.08;;;22.80;61.20;;;;;;5014235;28;20464;-74
2023/06/30 06:13:36;;;;;;;3.58;3.17;;;22.80;61.10;;;;;;5015543;28;20040;-74
2023/06/30 06:16:03;;;;;;;3.88;2.85;;;22.80;61.20;;;;;;5015332;28;20030;-74
2023/06/30 06:18:29;;;;;;;4.82;3.00;;;22.80;61.10;;;;;;5014331;28;20125;-73
2023/06/30 06:20:59;;;;;;;3.10;2.80;;;22.90;61.20;;;;;;5015685;28;20037;-74
2023/06/30 06:23:25;;;;;;;3.40;3.10;;;22.90;61.10;;;;;;5015704;28;20345;-74
2023/06/30 06:25:51;;;;;;;4.03;2.97;;;22.90;61.10;;;;;;5014110;28;20029;-75
2023/06/30 06:28:17;;;;;;;3.50;3.03;;;23.00;61.10;;;;;;5015341;28;20030;-75
2023/06/30 06:30:44;;;;;;;3.13;2.83;;;23.00;61.00;;;;;;5015512;28;20421;-75
2023/06/30 06:33:10;;;;;;;4.75;3.17;;;23.00;61.00;;;;;;5013718;28;20037;-75
2023/06/30 06:35:35;;;;;;;3.28;2.97;;;23.00;61.00;;;;;;5015290;28;20022;-75
2023/06/30 06:38:01;;;;;;;3.20;2.90;;;23.10;61.10;;;;;;5015647;28;20026;-75
2023/06/30 06:40:30;;;;;;;4.00;3.30;;;23.10;61.10;;;;;;5015407;28;20029;-74
2023/06/30 06:42:56;;;;;;;3.20;2.90;;;23.00;60.90;;;;;;5015312;28;20029;-74
2023/06/30 06:45:23;;;;;;;4.55;3.67;;;23.10;61.00;;;;;;5013731;28;20377;-74
2023/06/30 06:48:16;;;;;;;3.50;3.20;;;23.10;60.90;;;;;;5014664;28;20062;-74
2023/06/30 06:50:42;;;;;;;3.65;3.00;;;23.10;61.00;;;;;;5014782;28;20461;-74
2023/06/30 06:53:08;;;;;;;2.90;2.60;;;23.10;60.90;;;;;;5015212;28;20042;-74
2023/06/30 06:55:33;;;;;;;4.13;3.22;;;23.20;60.90;;;;;;5014867;28;20087;-74
2023/06/30 06:57:59;;;;;;;3.50;3.20;;;23.20;60.80;;;;;;5014747;28;20302;-74
2023/06/30 07:00:25;;;;;;;3.88;3.38;;;23.20;60.80;;;;;;5014587;28;20383;-74
2023/06/30 07:02:52;;;;;;;3.38;3.08;;;23.20;60.70;;;;;;5014580;28;20107;-75
2023/06/30 07:05:17;;;;;;;3.67;3.38;;;23.30;61.30;;;;;;5014577;28;20457;-74
2023/06/30 07:07:43;;;;;;;3.70;3.30;;;23.30;60.70;;;;;;5014586;28;20115;-74
2023/06/30 07:10:09;;;;;;;5.32;3.20;;;23.40;60.70;;;;;;5014647;28;20030;-74
2023/06/30 07:12:35;;;;;;;3.20;2.90;;;23.40;60.70;;;;;;5013266;28;20073;-74
2023/06/30 07:15:01;;;;;;;3.30;3.00;;;23.40;60.60;;;;;;5014420;28;20425;-75
2023/06/30 07:17:26;;;;;;;3.20;2.88;;;23.50;60.60;;;;;;5014353;28;20026;-74
2023/06/30 07:19:52;;;;;;;3.88;3.30;;;23.40;60.60;;;;;;5014788;28;20456;-74
2023/06/30 07:22:17;;;;;;;4.32;3.50;;;23.40;60.50;;;;;;5014449;28;20361;-74
2023/06/30 07:24:43;;;;;;;4.03;3.42;;;23.30;60.50;;;;;;5014784;28;20030;-75
2023/06/30 07:27:09;;;;;;;3.42;3.10;;;23.30;60.60;;;;;;5014211;28;20026;-74
2023/06/30 07:29:34;;;;;;;3.55;3.20;;;23.30;60.60;;;;;;5014171;28;20040;-74
2023/06/30 07:32:00;;;;;;;3.47;3.17;;;23.30;60.60;;;;;;5014622;28;20117;-74
2023/06/30 07:34:26;;;;;;;3.45;3.15;;;23.40;60.60;;;;;;5014300;28;20022;-75
2023/06/30 07:36:51;;;;;;;3.40;3.10;;;23.40;60.50;;;;;;5014258;28;20109;-74
2023/06/30 07:39:18;;;;;;;3.63;3.25;;;23.50;60.50;;;;;;5013928;28;20527;-75
2023/06/30 07:41:43;;;;;;;3.50;3.17;;;23.50;60.30;;;;;;5014223;28;20022;-75
2023/06/30 07:44:11;;;;;;;4.10;3.33;;;23.60;60.30;;;;;;5014382;28;20073;-75
2023/06/30 07:46:37;;;;;;;3.70;3.38;;;23.60;60.30;;;;;;4996769;28;20380;-74
2023/06/30 07:49:03;;;;;;;4.47;3.45;;;23.60;60.10;;;;;;5013799;28;20436;-74
2023/06/30 07:51:29;;;;;;;4.20;3.42;;;23.60;60.00;;;;;;5013815;28;20026;-74
2023/06/30 07:53:55;;;;;;;4.82;3.33;;;23.60;59.90;;;;;;5013905;28;20108;-74
2023/06/30 07:56:21;;;;;;;3.60;3.30;;;23.60;59.90;;;;;;5012767;28;20030;-75
2023/06/30 07:58:46;;;;;;;4.03;3.42;;;23.60;59.80;;;;;;5014091;28;20037;-74
2023/06/30 08:01:12;;;;;;;4.25;3.40;;;23.70;59.90;;;;;;5013680;28;20036;-74
2023/06/30 08:03:38;;;;;;;3.30;2.92;;;23.70;59.80;;;;;;5013448;28;20094;-75
2023/06/30 08:06:03;;;;;;;3.60;3.30;;;23.70;59.70;;;;;;5013691;28;20030;-74
2023/06/30 08:08:32;;;;;;;3.88;3.47;;;23.70;59.60;;;;;;5013775;28;20083;-74
2023/06/30 08:10:58;;;;;;;4.55;3.60;;;23.70;59.60;;;;;;5012288;28;20092;-74
2023/06/30 08:13:26;;;;;;;3.38;3.08;;;23.70;59.60;;;;;;5013751;28;20396;-74
2023/06/30 08:15:51;;;;;;;4.05;3.50;;;23.70;59.60;;;;;;5013747;28;20030;-74
2023/06/30 08:18:17;;;;;;;4.22;3.28;;;23.70;59.70;;;;;;5013856;28;20483;-75
2023/06/30 08:20:42;;;;;;;5.90;3.38;;;23.70;59.60;;;;;;5013578;28;20026;-74
2023/06/30 08:23:10;;;;;;;3.25;2.95;;;23.80;59.70;;;;;;5012339;28;20113;-75
2023/06/30 08:25:36;;;;;;;3.92;3.53;;;23.80;59.60;;;;;;5013283;28;20030;-74
2023/06/30 08:28:02;;;;;;;6.28;3.30;;;23.80;59.60;;;;;;5013202;28;20041;-75
2023/06/30 08:30:28;;;;;;;4.55;3.40;;;23.90;59.50;;;;;;5012417;28;20037;-74
2023/06/30 08:32:54;;;;;;;4.13;3.30;;;23.90;59.30;;;;;;5013933;28;20033;-74
2023/06/30 08:35:19;;;;;;;3.25;2.83;;;24.00;59.20;;;;;;5013684;28;20025;-75
2023/06/30 08:37:45;;;;;;;3.67;3.10;;;24.00;59.20;;;;;;5013546;28;20026;-75
2023/06/30 08:40:12;;;;;;;3.13;2.83;;;24.00;59.10;;;;;;5013256;28;20025;-74
2023/06/30 08:42:41;;;;;;;3.80;3.33;;;24.10;59.10;;;;;;5013271;28;20049;-74
2023/06/30 08:45:08;;;;;;;3.75;3.13;;;24.10;58.90;;;;;;5013719;28;20073;-74
2023/06/30 08:47:35;;;;;;;3.97;3.58;;;24.20;58.90;;;;;;5011851;28;20121;-74
2023/06/30 08:50:01;;;;;;;3.53;3.22;;;24.20;58.80;;;;;;5013551;28;20034;-74
2023/06/30 08:52:28;;;;;;;4.15;3.13;;;24.20;58.80;;;;;;5013254;28;20034;-75
2023/06/30 08:54:54;;;;;;;3.70;3.10;;;24.20;58.70;;;;;;5013309;28;20034;-75
2023/06/30 08:57:21;;;;;;;3.65;3.35;;;24.20;58.50;;;;;;5012592;28;20033;-74
2023/06/30 08:59:46;;;;;;;4.07;3.15;;;24.20;58.50;;;;;;5013607;28;20037;-75
2023/06/30 09:02:13;;;;;;;3.88;3.40;;;24.30;58.40;;;;;;5013519;28;20030;-76
2023/06/30 09:04:40;;;;;;;3.35;3.03;;;24.30;58.30;;;;;;5012170;28;20034;-75
2023/06/30 09:07:09;;;;;;;3.67;3.30;;;24.30;58.30;;;;;;5013355;28;20101;-75
2023/06/30 09:09:42;;;;;;;3.35;3.05;;;24.40;58.30;;;;;;5011826;28;20368;-75
2023/06/30 09:12:09;;;;;;;3.92;3.38;;;24.40;57.70;;;;;;5013542;28;20034;-75
2023/06/30 09:14:38;;;;;;;7.72;3.53;;;24.40;57.90;;;;;;5012082;28;20030;-75
2023/06/30 09:17:04;;;;;;;3.40;3.10;;;24.40;57.80;;;;;;5015038;28;20030;-75
2023/06/30 09:19:30;;;;;;;4.13;3.50;;;24.40;58.30;;;;;;5016378;28;20034;-75
2023/06/30 09:21:59;;;;;;;4.10;3.33;;;24.40;57.40;;;;;;5016403;28;20033;-75
2023/06/30 09:24:25;;;;;;;3.15;2.83;;;24.40;57.30;;;;;;5016618;28;20037;-75
2023/06/30 09:26:52;;;;;;;3.70;3.25;;;24.50;57.40;;;;;;5016418;28;20030;-74
2023/06/30 09:29:22;;;;;;;4.07;2.80;;;24.50;57.20;;;;;;5016134;28;20096;-74
2023/06/30 09:31:51;;;;;;;3.95;3.33;;;24.60;57.20;;;;;;5016379;28;20030;-74
2023/06/30 09:34:19;;;;;;;6.60;3.30;;;24.60;56.90;;;;;;5016147;28;20022;-74
2023/06/30 09:36:50;;;;;;;3.35;3.05;;;24.70;56.90;;;;;;5015979;28;20104;-74
2023/06/30 09:39:15;;;;;;;3.47;3.17;;;24.80;56.80;;;;;;5015168;28;20022;-75
2023/06/30 09:41:43;;;;;;;3.95;3.20;;;24.80;56.60;;;;;;5016202;28;20366;-75
2023/06/30 09:44:13;;;;;;;3.78;3.20;;;24.90;56.50;;;;;;5016485;28;20050;-75
2023/06/30 09:46:51;;;;;;;3.20;2.90;;;25.00;56.30;;;;;;5014597;28;20029;-75
2023/06/30 09:49:28;;;;;;;3.78;3.00;;;25.00;55.60;;;;;;5014521;28;20034;-75
2023/06/30 09:51:56;;;;;;;3.33;3.03;;;25.00;56.40;;;;;;5016223;28;20030;-75
2023/06/30 09:54:22;;;;;;;3.60;3.30;;;25.10;55.80;;;;;;5015939;28;20080;-75
2023/06/30 09:56:59;;;;;;;3.65;3.22;;;25.10;55.80;;;;;;5015926;28;20116;-75
2023/06/30 09:59:25;;;;;;;4.43;3.40;;;25.20;55.60;;;;;;5015807;28;20039;-75
2023/06/30 10:01:55;;;;;;;3.38;2.95;;;25.20;55.50;;;;;;5015651;28;20445;-75
2023/06/30 10:04:21;;;;;;;3.40;3.10;;;25.30;55.40;;;;;;5015790;28;20084;-75
2023/06/30 10:06:47;;;;;;;4.35;3.10;;;25.30;55.30;;;;;;5014337;28;20026;-75
2023/06/30 10:09:15;;;;;;;3.50;3.20;;;25.30;55.30;;;;;;5014490;28;20026;-75
2023/06/30 10:11:44;;;;;;;4.97;3.28;;;25.30;55.30;;;;;;5015558;28;20092;-75
2023/06/30 10:14:13;;;;;;;3.53;3.10;;;25.40;55.20;;;;;;5015581;28;20025;-75
2023/06/30 10:16:40;;;;;;;3.40;3.10;;;25.40;55.70;;;;;;5015183;28;20435;-76
2023/06/30 10:19:07;;;;;;;5.07;3.17;;;25.50;55.10;;;;;;5015245;28;20026;-75
2023/06/30 10:21:34;;;;;;;3.33;3.03;;;25.50;55.00;;;;;;5014471;28;20408;-76
2023/06/30 10:24:01;;;;;;;3.67;3.13;;;25.50;54.70;;;;;;5015538;28;20022;-75
2023/06/30 10:26:27;;;;;;;3.45;3.15;;;25.50;54.60;;;;;;5015064;28;20022;-75
2023/06/30 10:28:54;;;;;;;3.40;3.10;;;25.50;54.50;;;;;;5015148;28;20026;-75
2023/06/30 10:31:20;;;;;;;3.95;3.10;;;25.60;54.40;;;;;;5015566;28;20077;-75
2023/06/30 10:33:46;;;;;;;5.00;3.38;;;25.60;54.40;;;;;;5013970;28;20037;-75
2023/06/30 10:36:14;;;;;;;4.18;3.40;;;25.60;54.20;;;;;;5015167;28;20038;-75
2023/06/30 10:38:43;;;;;;;3.15;2.80;;;25.70;54.10;;;;;;5014033;28;20029;-75
2023/06/30 10:41:27;;;;;;;3.60;3.05;;;25.80;54.00;;;;;;5015204;28;20033;-75
2023/06/30 10:44:02;;;;;;;3.80;3.30;;;25.80;53.00;;;;;;5014082;28;20049;-74
2023/06/30 10:46:51;;;;;;;3.70;3.20;;;25.90;53.70;;;;;;5013730;28;20456;-75
2023/06/30 10:49:20;;;;;;;4.03;2.90;;;25.80;53.50;;;;;;5014852;28;20057;-74
2023/06/30 10:51:49;;;;;;;4.78;3.60;;;25.80;53.80;;;;;;5014780;28;20037;-74
2023/06/30 10:54:23;;;;;;;4.13;3.50;;;25.70;53.90;;;;;;5013502;28;20018;-75
2023/06/30 10:56:49;;;;;;;4.38;3.15;;;25.80;54.10;;;;;;5014318;28;20456;-74
2023/06/30 10:59:22;;;;;;;4.13;3.45;;;25.80;54.20;;;;;;5014808;28;20036;-74
2023/06/30 11:02:09;;;;;;;3.53;3.17;;;25.90;54.30;;;;;;5014475;28;20018;-74
2023/06/30 11:04:36;;;;;;;3.92;3.13;;;25.90;54.30;;;;;;5014479;28;20036;-75
2023/06/30 11:07:02;;;;;;;3.50;3.00;;;25.90;54.30;;;;;;5014752;28;20026;-75
2023/06/30 11:09:48;;;;;;;3.97;3.00;;;25.80;54.40;;;;;;5014461;28;20488;-74
2023/06/30 11:12:49;;;;;;;4.15;3.30;;;25.80;54.50;;;;;;5014251;28;20056;-74
2023/06/30 11:15:43;;;;;;;4.13;3.05;;;25.70;54.60;;;;;;5013616;28;20038;-74
2023/06/30 11:18:14;;;;;;;5.18;3.40;;;25.70;55.00;;;;;;5014154;28;20032;-74
2023/06/30 11:20:59;;;;;;;3.47;3.17;;;25.70;55.10;;;;;;5012767;28;20511;-73
2023/06/30 11:23:28;;;;;;;3.90;3.25;;;25.70;55.30;;;;;;5014506;28;20551;-75
2023/06/30 11:25:57;;;;;;;3.00;2.80;;;25.70;55.30;;;;;;5013200;28;20116;-74
2023/06/30 11:28:25;;;;;;;3.92;3.30;;;25.70;55.30;;;;;;5013151;28;20117;-75
2023/06/30 11:30:50;;;;;;;3.28;2.97;;;25.70;55.30;;;;;;5014140;28;20491;-75
2023/06/30 11:33:18;;;;;;;3.47;3.10;;;25.70;55.30;;;;;;5014220;28;20026;-75
2023/06/30 11:35:53;;;;;;;3.95;3.47;;;25.60;55.20;;;;;;5014159;28;20104;-75
2023/06/30 11:38:18;;;;;;;5.18;3.60;;;25.70;55.80;;;;;;5012240;28;20026;-75
2023/06/30 11:40:49;;;;;;;4.03;3.35;;;25.60;55.20;;;;;;5014068;28;20034;-75
2023/06/30 11:43:16;;;;;;;3.42;3.05;;;25.60;55.10;;;;;;5014345;28;20026;-74
2023/06/30 11:45:42;;;;;;;3.95;3.42;;;25.60;55.10;;;;;;5013937;28;20404;-74
2023/06/30 11:48:08;;;;;;;4.45;3.50;;;25.60;55.10;;;;;;5013925;28;20030;-74
2023/06/30 11:50:33;;;;;;;4.00;3.42;;;25.60;55.00;;;;;;4996501;28;20048;-74
2023/06/30 11:53:02;;;;;;;4.25;3.05;;;25.70;55.10;;;;;;5013925;28;20034;-75
2023/06/30 11:55:28;;;;;;;4.75;3.35;;;25.80;55.00;;;;;;5013904;28;20054;-75
2023/06/30 11:57:54;;;;;;;3.05;2.75;;;25.90;54.90;;;;;;5013840;28;20068;-74
2023/06/30 12:00:22;;;;;;;3.70;3.40;;;25.90;54.70;;;;;;5012337;28;20026;-75
2023/06/30 12:02:50;;;;;;;3.65;3.30;;;25.90;54.50;;;;;;5013694;28;20483;-75
2023/06/30 12:05:23;;;;;;;3.72;3.25;;;25.90;54.50;;;;;;5012525;28;20026;-74
2023/06/30 12:07:50;;;;;;;3.63;3.10;;;25.80;54.50;;;;;;5012818;28;20034;-75
2023/06/30 12:10:16;;;;;;;3.40;3.10;;;25.80;54.50;;;;;;5012232;28;20088;-75
2023/06/30 12:12:42;;;;;;;3.53;3.15;;;25.80;54.30;;;;;;5013798;28;20468;-75
2023/06/30 12:15:10;;;;;;;3.42;3.13;;;25.80;54.30;;;;;;5012253;28;20033;-74
2023/06/30 12:17:43;;;;;;;3.60;3.13;;;25.90;54.30;;;;;;5013999;28;20026;-75
2023/06/30 12:20:12;;;;;;;3.60;3.30;;;26.00;54.20;;;;;;5012561;28;20026;-75
2023/06/30 12:22:44;;;;;;;3.95;3.10;;;26.00;53.90;;;;;;5013866;28;20034;-76
2023/06/30 12:25:11;;;;;;;4.00;3.03;;;26.10;53.70;;;;;;5013446;28;20033;-76
2023/06/30 12:27:41;;;;;;;3.35;3.05;;;26.10;53.50;;;;;;5013564;28;20029;-76
2023/06/30 12:30:18;;;;;;;3.40;3.10;;;26.10;53.40;;;;;;5012528;28;20030;-73
2023/06/30 12:32:45;;;;;;;4.70;3.28;;;26.00;52.30;;;;;;5013690;28;20070;-75
2023/06/30 12:35:12;;;;;;;3.30;3.00;;;26.00;53.10;;;;;;5012097;28;20026;-75
2023/06/30 12:37:38;;;;;;;4.20;3.28;;;25.90;53.00;;;;;;5013497;28;20495;-75
2023/06/30 12:40:06;;;;;;;4.07;2.72;;;26.00;53.10;;;;;;5012783;28;20037;-74
2023/06/30 12:42:32;;;;;;;3.40;3.00;;;26.00;53.00;;;;;;5011891;28;20029;-75
2023/06/30 12:44:58;;;;;;;5.47;3.42;;;26.00;52.90;;;;;;5013679;28;20060;-75
2023/06/30 12:47:23;;;;;;;3.60;3.25;;;26.00;53.00;;;;;;5013062;28;20053;-75
2023/06/30 12:49:49;;;;;;;3.38;3.00;;;26.00;53.10;;;;;;5014468;28;20065;-75